sensor_id;sensor_type;location;lat;lon;timestamp;P1;durP1;ratioP1;P2;durP2;ratioP2
29370;SDS011;16357;52.188;7.838;2023-07-29T00:00:01;2.45;;;2.25;;
29370;SDS011;16357;52.188;7.838;2023-07-29T00:02:29;2.50;;;2.30;;
29370;SDS011;16357;52.188;7.838;2023-07-29T00:04:57;3.40;;;2.70;;
29370;SDS011;16357;52.188;7.838;2023-07-29T00:07:23;4.43;;;3.20;;
29370;SDS011;16357;52.188;7.838;2023-07-29T00:09:50;5.53;;;2.75;;
29370;SDS011;16357;52.188;7.838;2023-07-29T00:12:16;4.22;;;3.10;;
29370;SDS011;16357;52.188;7.838;2023-07-29T00:14:43;4.50;;;3.10;;
29370;SDS011;16357;52.188;7.838;2023-07-29T00:17:09;3.40;;;3.10;;
29370;SDS011;16357;52.188;7.838;2023-07-29T00:19:36;4.95;;;3.42;;
29370;SDS011;16357;52.188;7.838;2023-07-29T00:22:02;2.92;;;2.72;;
29370;SDS011;16357;52.188;7.838;2023-07-29T00:24:30;3.17;;;2.88;;
29370;SDS011;16357;52.188;7.838;2023-07-29T00:26:56;3.80;;;2.88;;
29370;SDS011;16357;52.188;7.838;2023-07-29T00:29:23;3.20;;;2.65;;
29370;SDS011;16357;52.188;7.838;2023-07-29T00:31:49;3.63;;;2.83;;
29370;SDS011;16357;52.188;7.838;2023-07-29T00:34:16;3.20;;;2.90;;
29370;SDS011;16357;52.188;7.838;2023-07-29T00:36:45;3.65;;;2.60;;
29370;SDS011;16357;52.188;7.838;2023-07-29T00:39:12;3.25;;;2.55;;
29370;SDS011;16357;52.188;7.838;2023-07-29T00:41:39;3.00;;;2.70;;
29370;SDS011;16357;52.188;7.838;2023-07-29T00:44:05;2.60;;;2.40;;
29370;SDS011;16357;52.188;7.838;2023-07-29T00:46:33;4.15;;;2.78;;
29370;SDS011;16357;52.188;7.838;2023-07-29T00:49:01;3.70;;;2.85;;
29370;SDS011;16357;52.188;7.838;2023-07-29T00:51:28;4.10;;;3.47;;
29370;SDS011;16357;52.188;7.838;2023-07-29T00:53:54;4.28;;;2.85;;
29370;SDS011;16357;52.188;7.838;2023-07-29T00:56:21;3.13;;;2.83;;
29370;SDS011;16357;52.188;7.838;2023-07-29T00:58:48;4.22;;;2.83;;
29370;SDS011;16357;52.188;7.838;2023-07-29T01:01:14;3.50;;;2.90;;
29370;SDS011;16357;52.188;7.838;2023-07-29T01:03:41;5.15;;;3.55;;
29370;SDS011;16357;52.188;7.838;2023-07-29T01:06:27;4.35;;;3.47;;
29370;SDS011;16357;52.188;7.838;2023-07-29T01:09:17;6.75;;;3.17;;
29370;SDS011;16357;52.188;7.838;2023-07-29T01:14:49;4.38;;;3.50;;
29370;SDS011;16357;52.188;7.838;2023-07-29T01:17:22;3.10;;;2.80;;
29370;SDS011;16357;52.188;7.838;2023-07-29T01:22:32;3.30;;;3.00;;
29370;SDS011;16357;52.188;7.838;2023-07-29T01:25:00;6.05;;;2.92;;
29370;SDS011;16357;52.188;7.838;2023-07-29T01:27:27;5.03;;;3.38;;
29370;SDS011;16357;52.188;7.838;2023-07-29T01:29:54;3.58;;;2.78;;
29370;SDS011;16357;52.188;7.838;2023-07-29T01:35:10;3.08;;;2.78;;
29370;SDS011;16357;52.188;7.838;2023-07-29T01:37:44;3.33;;;3.03;;
29370;SDS011;16357;52.188;7.838;2023-07-29T01:40:15;3.83;;;2.70;;
29370;SDS011;16357;52.188;7.838;2023-07-29T01:42:42;6.00;;;3.20;;
29370;SDS011;16357;52.188;7.838;2023-07-29T01:45:09;4.68;;;3.33;;
29370;SDS011;16357;52.188;7.838;2023-07-29T01:47:36;7.57;;;4.25;;
29370;SDS011;16357;52.188;7.838;2023-07-29T01:50:04;5.10;;;3.63;;
29370;SDS011;16357;52.188;7.838;2023-07-29T01:52:31;5.28;;;3.80;;
29370;SDS011;16357;52.188;7.838;2023-07-29T01:54:58;5.03;;;3.85;;
29370;SDS011;16357;52.188;7.838;2023-07-29T01:57:24;3.58;;;3.28;;
29370;SDS011;16357;52.188;7.838;2023-07-29T01:59:50;4.35;;;3.75;;
29370;SDS011;16357;52.188;7.838;2023-07-29T02:02:17;3.95;;;3.15;;
29370;SDS011;16357;52.188;7.838;2023-07-29T02:04:43;4.30;;;3.58;;
29370;SDS011;16357;52.188;7.838;2023-07-29T02:07:11;5.70;;;3.92;;
29370;SDS011;16357;52.188;7.838;2023-07-29T02:09:37;5.07;;;3.33;;
29370;SDS011;16357;52.188;7.838;2023-07-29T02:12:04;3.90;;;3.50;;
29370;SDS011;16357;52.188;7.838;2023-07-29T02:14:33;5.57;;;3.60;;
29370;SDS011;16357;52.188;7.838;2023-07-29T02:17:00;3.63;;;3.25;;
29370;SDS011;16357;52.188;7.838;2023-07-29T02:19:26;3.80;;;3.15;;
29370;SDS011;16357;52.188;7.838;2023-07-29T02:21:53;4.50;;;3.20;;
29370;SDS011;16357;52.188;7.838;2023-07-29T02:24:19;5.43;;;3.53;;
29370;SDS011;16357;52.188;7.838;2023-07-29T02:26:46;3.40;;;3.10;;
29370;SDS011;16357;52.188;7.838;2023-07-29T02:29:12;4.43;;;3.22;;
29370;SDS011;16357;52.188;7.838;2023-07-29T02:31:38;4.13;;;3.20;;
29370;SDS011;16357;52.188;7.838;2023-07-29T02:34:05;3.67;;;3.20;;
29370;SDS011;16357;52.188;7.838;2023-07-29T02:36:31;4.55;;;3.70;;
29370;SDS011;16357;52.188;7.838;2023-07-29T02:38:58;3.40;;;3.03;;
29370;SDS011;16357;52.188;7.838;2023-07-29T02:41:24;4.40;;;3.22;;
29370;SDS011;16357;52.188;7.838;2023-07-29T02:43:51;4.03;;;3.38;;
29370;SDS011;16357;52.188;7.838;2023-07-29T02:46:18;3.53;;;3.10;;
29370;SDS011;16357;52.188;7.838;2023-07-29T02:48:44;3.55;;;2.88;;
29370;SDS011;16357;52.188;7.838;2023-07-29T02:51:11;3.85;;;3.00;;
29370;SDS011;16357;52.188;7.838;2023-07-29T02:53:37;4.00;;;3.15;;
29370;SDS011;16357;52.188;7.838;2023-07-29T02:56:04;4.47;;;2.78;;
29370;SDS011;16357;52.188;7.838;2023-07-29T02:58:32;3.80;;;3.22;;
29370;SDS011;16357;52.188;7.838;2023-07-29T03:01:02;3.88;;;3.40;;
29370;SDS011;16357;52.188;7.838;2023-07-29T03:03:30;3.40;;;3.10;;
29370;SDS011;16357;52.188;7.838;2023-07-29T03:06:04;3.38;;;3.08;;
29370;SDS011;16357;52.188;7.838;2023-07-29T03:08:33;4.38;;;3.45;;
29370;SDS011;16357;52.188;7.838;2023-07-29T03:11:04;3.33;;;3.03;;
29370;SDS011;16357;52.188;7.838;2023-07-29T03:13:33;3.20;;;2.90;;
29370;SDS011;16357;52.188;7.838;2023-07-29T03:16:09;3.97;;;2.92;;
29370;SDS011;16357;52.188;7.838;2023-07-29T03:18:37;5.03;;;3.08;;
29370;SDS011;16357;52.188;7.838;2023-07-29T03:21:04;3.63;;;2.90;;
29370;SDS011;16357;52.188;7.838;2023-07-29T03:23:32;3.90;;;3.03;;
29370;SDS011;16357;52.188;7.838;2023-07-29T03:25:59;3.85;;;3.10;;
29370;SDS011;16357;52.188;7.838;2023-07-29T03:28:28;4.28;;;2.90;;
29370;SDS011;16357;52.188;7.838;2023-07-29T03:30:56;3.65;;;3.13;;
29370;SDS011;16357;52.188;7.838;2023-07-29T03:33:23;3.75;;;3.08;;
29370;SDS011;16357;52.188;7.838;2023-07-29T03:35:51;3.35;;;3.05;;
29370;SDS011;16357;52.188;7.838;2023-07-29T03:38:18;3.55;;;3.15;;
29370;SDS011;16357;52.188;7.838;2023-07-29T03:40:45;4.13;;;3.53;;
29370;SDS011;16357;52.188;7.838;2023-07-29T03:43:12;3.42;;;3.08;;
29370;SDS011;16357;52.188;7.838;2023-07-29T03:45:39;4.22;;;3.35;;
29370;SDS011;16357;52.188;7.838;2023-07-29T03:48:06;3.78;;;3.40;;
29370;SDS011;16357;52.188;7.838;2023-07-29T03:50:34;4.68;;;3.30;;
29370;SDS011;16357;52.188;7.838;2023-07-29T03:53:02;4.18;;;3.40;;
29370;SDS011;16357;52.188;7.838;2023-07-29T03:55:30;3.67;;;2.88;;
29370;SDS011;16357;52.188;7.838;2023-07-29T03:57:57;4.60;;;3.35;;
29370;SDS011;16357;52.188;7.838;2023-07-29T04:00:25;6.28;;;3.40;;
29370;SDS011;16357;52.188;7.838;2023-07-29T04:02:51;4.47;;;3.15;;
29370;SDS011;16357;52.188;7.838;2023-07-29T04:05:18;4.18;;;3.22;;
29370;SDS011;16357;52.188;7.838;2023-07-29T04:07:45;5.20;;;3.50;;
29370;SDS011;16357;52.188;7.838;2023-07-29T04:10:11;4.00;;;3.58;;
29370;SDS011;16357;52.188;7.838;2023-07-29T04:12:38;5.05;;;3.30;;
29370;SDS011;16357;52.188;7.838;2023-07-29T04:15:05;5.85;;;3.75;;
29370;SDS011;16357;52.188;7.838;2023-07-29T04:17:32;4.50;;;3.92;;
29370;SDS011;16357;52.188;7.838;2023-07-29T04:19:58;4.95;;;3.65;;
29370;SDS011;16357;52.188;7.838;2023-07-29T04:22:24;5.45;;;3.15;;
29370;SDS011;16357;52.188;7.838;2023-07-29T04:24:51;5.35;;;3.42;;
29370;SDS011;16357;52.188;7.838;2023-07-29T04:27:17;4.40;;;3.70;;
29370;SDS011;16357;52.188;7.838;2023-07-29T04:29:44;4.85;;;4.07;;
29370;SDS011;16357;52.188;7.838;2023-07-29T04:32:10;5.13;;;4.40;;
29370;SDS011;16357;52.188;7.838;2023-07-29T04:34:37;4.97;;;4.47;;
29370;SDS011;16357;52.188;7.838;2023-07-29T04:37:03;5.07;;;4.40;;
29370;SDS011;16357;52.188;7.838;2023-07-29T04:39:30;6.95;;;4.28;;
29370;SDS011;16357;52.188;7.838;2023-07-29T04:41:56;4.95;;;4.07;;
29370;SDS011;16357;52.188;7.838;2023-07-29T04:44:23;4.28;;;3.88;;
29370;SDS011;16357;52.188;7.838;2023-07-29T04:46:50;7.07;;;4.43;;
29370;SDS011;16357;52.188;7.838;2023-07-29T04:49:16;4.15;;;3.75;;
29370;SDS011;16357;52.188;7.838;2023-07-29T04:51:42;4.88;;;3.95;;
29370;SDS011;16357;52.188;7.838;2023-07-29T04:54:09;11.85;;;4.25;;
29370;SDS011;16357;52.188;7.838;2023-07-29T04:56:35;6.22;;;3.55;;
29370;SDS011;16357;52.188;7.838;2023-07-29T04:59:02;4.72;;;3.50;;
29370;SDS011;16357;52.188;7.838;2023-07-29T05:01:29;4.63;;;3.92;;
29370;SDS011;16357;52.188;7.838;2023-07-29T05:03:55;4.00;;;3.58;;
29370;SDS011;16357;52.188;7.838;2023-07-29T05:06:22;6.07;;;3.65;;
29370;SDS011;16357;52.188;7.838;2023-07-29T05:08:48;7.13;;;4.70;;
29370;SDS011;16357;52.188;7.838;2023-07-29T05:11:14;5.60;;;4.32;;
29370;SDS011;16357;52.188;7.838;2023-07-29T05:13:41;4.45;;;3.90;;
29370;SDS011;16357;52.188;7.838;2023-07-29T05:16:10;5.28;;;4.18;;
29370;SDS011;16357;52.188;7.838;2023-07-29T05:18:36;5.55;;;4.75;;
29370;SDS011;16357;52.188;7.838;2023-07-29T05:21:03;6.22;;;4.90;;
29370;SDS011;16357;52.188;7.838;2023-07-29T05:23:29;5.45;;;4.93;;
29370;SDS011;16357;52.188;7.838;2023-07-29T05:25:56;5.50;;;4.68;;
29370;SDS011;16357;52.188;7.838;2023-07-29T05:28:22;5.45;;;4.95;;
29370;SDS011;16357;52.188;7.838;2023-07-29T05:30:49;6.05;;;4.85;;
29370;SDS011;16357;52.188;7.838;2023-07-29T05:33:15;5.85;;;5.05;;
29370;SDS011;16357;52.188;7.838;2023-07-29T05:35:42;6.38;;;5.03;;
29370;SDS011;16357;52.188;7.838;2023-07-29T05:38:08;5.32;;;4.60;;
29370;SDS011;16357;52.188;7.838;2023-07-29T05:40:35;6.97;;;5.43;;
29370;SDS011;16357;52.188;7.838;2023-07-29T05:43:02;6.32;;;5.72;;
29370;SDS011;16357;52.188;7.838;2023-07-29T05:45:29;7.78;;;5.07;;
29370;SDS011;16357;52.188;7.838;2023-07-29T05:47:57;7.05;;;5.95;;
29370;SDS011;16357;52.188;7.838;2023-07-29T05:50:23;6.43;;;5.53;;
29370;SDS011;16357;52.188;7.838;2023-07-29T05:52:50;6.60;;;5.95;;
29370;SDS011;16357;52.188;7.838;2023-07-29T05:55:16;6.10;;;5.50;;
29370;SDS011;16357;52.188;7.838;2023-07-29T05:57:43;7.97;;;6.05;;
29370;SDS011;16357;52.188;7.838;2023-07-29T06:00:10;6.60;;;6.00;;
29370;SDS011;16357;52.188;7.838;2023-07-29T06:02:36;6.70;;;6.03;;
29370;SDS011;16357;52.188;7.838;2023-07-29T06:05:03;7.78;;;5.85;;
29370;SDS011;16357;52.188;7.838;2023-07-29T06:07:30;8.98;;;6.43;;
29370;SDS011;16357;52.188;7.838;2023-07-29T06:09:58;8.10;;;7.30;;
29370;SDS011;16357;52.188;7.838;2023-07-29T06:12:24;8.20;;;7.40;;
29370;SDS011;16357;52.188;7.838;2023-07-29T06:14:52;8.20;;;7.35;;
29370;SDS011;16357;52.188;7.838;2023-07-29T06:17:19;7.90;;;7.05;;
29370;SDS011;16357;52.188;7.838;2023-07-29T06:19:45;9.57;;;7.25;;
29370;SDS011;16357;52.188;7.838;2023-07-29T06:22:11;7.65;;;6.95;;
29370;SDS011;16357;52.188;7.838;2023-07-29T06:24:38;7.82;;;7.03;;
29370;SDS011;16357;52.188;7.838;2023-07-29T06:27:04;9.43;;;8.52;;
29370;SDS011;16357;52.188;7.838;2023-07-29T06:29:31;10.52;;;9.52;;
29370;SDS011;16357;52.188;7.838;2023-07-29T06:31:58;11.00;;;9.30;;
29370;SDS011;16357;52.188;7.838;2023-07-29T06:34:24;10.18;;;9.18;;
29370;SDS011;16357;52.188;7.838;2023-07-29T06:36:52;9.77;;;8.63;;
29370;SDS011;16357;52.188;7.838;2023-07-29T06:39:18;10.18;;;8.95;;
29370;SDS011;16357;52.188;7.838;2023-07-29T06:41:45;9.48;;;8.48;;
29370;SDS011;16357;52.188;7.838;2023-07-29T06:44:11;10.13;;;9.13;;
29370;SDS011;16357;52.188;7.838;2023-07-29T06:46:38;11.20;;;9.13;;
29370;SDS011;16357;52.188;7.838;2023-07-29T06:49:05;10.60;;;9.50;;
29370;SDS011;16357;52.188;7.838;2023-07-29T06:51:31;10.85;;;9.52;;
29370;SDS011;16357;52.188;7.838;2023-07-29T06:54:01;9.63;;;8.63;;
29370;SDS011;16357;52.188;7.838;2023-07-29T06:56:28;10.50;;;9.50;;
29370;SDS011;16357;52.188;7.838;2023-07-29T06:58:54;9.52;;;8.50;;
29370;SDS011;16357;52.188;7.838;2023-07-29T07:01:21;9.40;;;8.48;;
29370;SDS011;16357;52.188;7.838;2023-07-29T07:03:48;9.05;;;8.10;;
29370;SDS011;16357;52.188;7.838;2023-07-29T07:06:14;8.93;;;8.02;;
29370;SDS011;16357;52.188;7.838;2023-07-29T07:08:41;8.90;;;8.00;;
29370;SDS011;16357;52.188;7.838;2023-07-29T07:11:07;10.75;;;8.75;;
29370;SDS011;16357;52.188;7.838;2023-07-29T07:13:34;13.50;;;8.52;;
29370;SDS011;16357;52.188;7.838;2023-07-29T07:16:00;10.30;;;8.77;;
29370;SDS011;16357;52.188;7.838;2023-07-29T07:18:27;11.38;;;8.52;;
29370;SDS011;16357;52.188;7.838;2023-07-29T07:20:53;11.07;;;8.80;;
29370;SDS011;16357;52.188;7.838;2023-07-29T07:23:21;11.48;;;8.70;;
29370;SDS011;16357;52.188;7.838;2023-07-29T07:25:47;9.23;;;7.63;;
29370;SDS011;16357;52.188;7.838;2023-07-29T07:28:14;9.32;;;7.25;;
29370;SDS011;16357;52.188;7.838;2023-07-29T07:30:40;7.68;;;6.60;;
29370;SDS011;16357;52.188;7.838;2023-07-29T07:33:07;8.32;;;6.03;;
29370;SDS011;16357;52.188;7.838;2023-07-29T07:35:34;5.95;;;4.03;;
29370;SDS011;16357;52.188;7.838;2023-07-29T07:38:00;2.45;;;2.25;;
29370;SDS011;16357;52.188;7.838;2023-07-29T07:40:30;1.90;;;1.70;;
29370;SDS011;16357;52.188;7.838;2023-07-29T07:42:57;1.27;;;1.10;;
29370;SDS011;16357;52.188;7.838;2023-07-29T07:45:24;1.50;;;1.20;;
29370;SDS011;16357;52.188;7.838;2023-07-29T07:47:51;2.35;;;1.10;;
29370;SDS011;16357;52.188;7.838;2023-07-29T07:50:19;1.48;;;0.93;;
29370;SDS011;16357;52.188;7.838;2023-07-29T07:52:46;0.88;;;0.88;;
29370;SDS011;16357;52.188;7.838;2023-07-29T07:55:13;2.58;;;1.20;;
29370;SDS011;16357;52.188;7.838;2023-07-29T07:57:39;1.52;;;1.02;;
29370;SDS011;16357;52.188;7.838;2023-07-29T08:00:06;1.20;;;1.00;;
29370;SDS011;16357;52.188;7.838;2023-07-29T08:02:33;1.10;;;1.00;;
29370;SDS011;16357;52.188;7.838;2023-07-29T08:04:59;1.42;;;1.20;;
29370;SDS011;16357;52.188;7.838;2023-07-29T08:07:26;1.45;;;0.98;;
29370;SDS011;16357;52.188;7.838;2023-07-29T08:09:52;1.17;;;0.93;;
29370;SDS011;16357;52.188;7.838;2023-07-29T08:12:18;1.38;;;0.90;;
29370;SDS011;16357;52.188;7.838;2023-07-29T08:14:45;1.80;;;0.90;;
29370;SDS011;16357;52.188;7.838;2023-07-29T08:17:12;1.52;;;1.02;;
29370;SDS011;16357;52.188;7.838;2023-07-29T08:19:38;2.95;;;1.17;;
29370;SDS011;16357;52.188;7.838;2023-07-29T08:22:05;1.92;;;1.00;;
29370;SDS011;16357;52.188;7.838;2023-07-29T08:24:31;1.40;;;0.98;;
29370;SDS011;16357;52.188;7.838;2023-07-29T08:26:58;0.90;;;0.90;;
29370;SDS011;16357;52.188;7.838;2023-07-29T08:29:24;1.73;;;1.10;;
29370;SDS011;16357;52.188;7.838;2023-07-29T08:31:51;3.08;;;1.00;;
29370;SDS011;16357;52.188;7.838;2023-07-29T08:34:17;1.48;;;0.98;;
29370;SDS011;16357;52.188;7.838;2023-07-29T08:36:44;1.60;;;1.08;;
29370;SDS011;16357;52.188;7.838;2023-07-29T08:39:10;1.52;;;1.02;;
29370;SDS011;16357;52.188;7.838;2023-07-29T08:41:38;1.00;;;0.85;;
29370;SDS011;16357;52.188;7.838;2023-07-29T08:44:12;1.40;;;0.90;;
29370;SDS011;16357;52.188;7.838;2023-07-29T08:46:44;1.98;;;0.90;;
29370;SDS011;16357;52.188;7.838;2023-07-29T08:49:14;2.50;;;0.90;;
29370;SDS011;16357;52.188;7.838;2023-07-29T08:51:42;1.33;;;0.90;;
29370;SDS011;16357;52.188;7.838;2023-07-29T08:54:10;1.08;;;0.90;;
29370;SDS011;16357;52.188;7.838;2023-07-29T08:56:37;2.58;;;0.88;;
29370;SDS011;16357;52.188;7.838;2023-07-29T08:59:05;1.45;;;0.98;;
29370;SDS011;16357;52.188;7.838;2023-07-29T09:01:32;1.10;;;0.80;;
29370;SDS011;16357;52.188;7.838;2023-07-29T09:03:59;0.88;;;0.85;;
29370;SDS011;16357;52.188;7.838;2023-07-29T09:06:25;3.28;;;0.85;;
29370;SDS011;16357;52.188;7.838;2023-07-29T09:08:54;1.17;;;0.80;;
29370;SDS011;16357;52.188;7.838;2023-07-29T09:11:22;1.30;;;0.70;;
29370;SDS011;16357;52.188;7.838;2023-07-29T09:13:49;0.70;;;0.70;;
29370;SDS011;16357;52.188;7.838;2023-07-29T09:16:15;1.17;;;0.80;;
29370;SDS011;16357;52.188;7.838;2023-07-29T09:18:42;0.80;;;0.70;;
29370;SDS011;16357;52.188;7.838;2023-07-29T09:21:09;1.40;;;0.70;;
29370;SDS011;16357;52.188;7.838;2023-07-29T09:23:42;0.90;;;0.70;;
29370;SDS011;16357;52.188;7.838;2023-07-29T09:26:09;3.08;;;0.80;;
29370;SDS011;16357;52.188;7.838;2023-07-29T09:28:39;1.00;;;0.70;;
29370;SDS011;16357;52.188;7.838;2023-07-29T09:31:06;0.80;;;0.70;;
29370;SDS011;16357;52.188;7.838;2023-07-29T09:33:34;0.60;;;0.60;;
29370;SDS011;16357;52.188;7.838;2023-07-29T09:36:08;0.88;;;0.65;;
29370;SDS011;16357;52.188;7.838;2023-07-29T09:38:35;1.15;;;0.70;;
29370;SDS011;16357;52.188;7.838;2023-07-29T09:41:03;0.77;;;0.77;;
29370;SDS011;16357;52.188;7.838;2023-07-29T09:43:30;4.82;;;0.70;;
29370;SDS011;16357;52.188;7.838;2023-07-29T09:46:01;0.90;;;0.77;;
29370;SDS011;16357;52.188;7.838;2023-07-29T09:48:34;1.30;;;0.80;;
29370;SDS011;16357;52.188;7.838;2023-07-29T09:51:09;1.10;;;0.80;;
29370;SDS011;16357;52.188;7.838;2023-07-29T09:53:44;1.30;;;0.77;;
29370;SDS011;16357;52.188;7.838;2023-07-29T09:56:13;1.33;;;0.80;;
29370;SDS011;16357;52.188;7.838;2023-07-29T09:58:40;0.68;;;0.65;;
29370;SDS011;16357;52.188;7.838;2023-07-29T10:01:09;0.88;;;0.70;;
29370;SDS011;16357;52.188;7.838;2023-07-29T10:03:36;1.05;;;0.77;;
29370;SDS011;16357;52.188;7.838;2023-07-29T10:06:04;2.08;;;0.77;;
29370;SDS011;16357;52.188;7.838;2023-07-29T10:08:32;0.93;;;0.50;;
29370;SDS011;16357;52.188;7.838;2023-07-29T10:11:01;2.83;;;0.60;;
29370;SDS011;16357;52.188;7.838;2023-07-29T10:13:28;2.88;;;0.60;;
29370;SDS011;16357;52.188;7.838;2023-07-29T10:15:54;0.50;;;0.50;;
29370;SDS011;16357;52.188;7.838;2023-07-29T10:18:24;0.68;;;0.60;;
29370;SDS011;16357;52.188;7.838;2023-07-29T10:20:51;1.10;;;0.70;;
29370;SDS011;16357;52.188;7.838;2023-07-29T10:23:19;0.80;;;0.68;;
29370;SDS011;16357;52.188;7.838;2023-07-29T10:25:50;1.70;;;0.90;;
29370;SDS011;16357;52.188;7.838;2023-07-29T10:28:28;0.88;;;0.50;;
29370;SDS011;16357;52.188;7.838;2023-07-29T10:30:56;0.63;;;0.57;;
29370;SDS011;16357;52.188;7.838;2023-07-29T10:33:24;0.82;;;0.60;;
29370;SDS011;16357;52.188;7.838;2023-07-29T10:35:54;0.63;;;0.50;;
29370;SDS011;16357;52.188;7.838;2023-07-29T10:38:21;0.55;;;0.55;;
29370;SDS011;16357;52.188;7.838;2023-07-29T10:40:54;0.40;;;0.40;;
29370;SDS011;16357;52.188;7.838;2023-07-29T10:43:24;0.85;;;0.60;;
29370;SDS011;16357;52.188;7.838;2023-07-29T10:45:58;0.50;;;0.40;;
29370;SDS011;16357;52.188;7.838;2023-07-29T10:51:51;0.60;;;0.50;;
29370;SDS011;16357;52.188;7.838;2023-07-29T10:54:15;1.30;;;0.82;;
29370;SDS011;16357;52.188;7.838;2023-07-29T10:56:42;0.73;;;0.60;;
29370;SDS011;16357;52.188;7.838;2023-07-29T11:01:53;0.93;;;0.70;;
29370;SDS011;16357;52.188;7.838;2023-07-29T11:13:08;0.90;;;0.80;;
29370;SDS011;16357;52.188;7.838;2023-07-29T11:17:54;2.08;;;0.73;;
29370;SDS011;16357;52.188;7.838;2023-07-29T11:20:29;0.63;;;0.63;;
29370;SDS011;16357;52.188;7.838;2023-07-29T11:22:58;1.40;;;0.80;;
29370;SDS011;16357;52.188;7.838;2023-07-29T11:25:26;0.70;;;0.70;;
29370;SDS011;16357;52.188;7.838;2023-07-29T11:27:55;0.80;;;0.63;;
29370;SDS011;16357;52.188;7.838;2023-07-29T11:30:23;0.82;;;0.73;;
29370;SDS011;16357;52.188;7.838;2023-07-29T11:32:53;1.73;;;0.90;;
29370;SDS011;16357;52.188;7.838;2023-07-29T11:35:20;0.90;;;0.68;;
29370;SDS011;16357;52.188;7.838;2023-07-29T11:37:47;1.52;;;0.80;;
29370;SDS011;16357;52.188;7.838;2023-07-29T11:40:19;1.50;;;0.50;;
29370;SDS011;16357;52.188;7.838;2023-07-29T11:42:47;0.65;;;0.65;;
29370;SDS011;16357;52.188;7.838;2023-07-29T11:45:16;1.33;;;0.80;;
29370;SDS011;16357;52.188;7.838;2023-07-29T11:47:44;1.52;;;0.70;;
29370;SDS011;16357;52.188;7.838;2023-07-29T11:50:12;1.17;;;0.70;;
29370;SDS011;16357;52.188;7.838;2023-07-29T11:52:43;0.70;;;0.57;;
29370;SDS011;16357;52.188;7.838;2023-07-29T11:55:12;1.60;;;1.00;;
29370;SDS011;16357;52.188;7.838;2023-07-29T11:57:40;1.95;;;1.00;;
29370;SDS011;16357;52.188;7.838;2023-07-29T12:00:09;0.90;;;0.85;;
29370;SDS011;16357;52.188;7.838;2023-07-29T12:02:39;1.75;;;1.10;;
29370;SDS011;16357;52.188;7.838;2023-07-29T12:05:07;1.35;;;0.82;;
29370;SDS011;16357;52.188;7.838;2023-07-29T12:07:35;1.92;;;0.90;;
29370;SDS011;16357;52.188;7.838;2023-07-29T12:10:04;1.10;;;0.88;;
29370;SDS011;16357;52.188;7.838;2023-07-29T12:12:31;2.85;;;0.85;;
29370;SDS011;16357;52.188;7.838;2023-07-29T12:14:58;0.80;;;0.80;;
29370;SDS011;16357;52.188;7.838;2023-07-29T12:17:24;0.70;;;0.70;;
29370;SDS011;16357;52.188;7.838;2023-07-29T12:19:53;1.45;;;0.75;;
29370;SDS011;16357;52.188;7.838;2023-07-29T12:22:20;1.00;;;0.73;;
29370;SDS011;16357;52.188;7.838;2023-07-29T12:24:48;3.35;;;0.80;;
29370;SDS011;16357;52.188;7.838;2023-07-29T12:27:17;0.90;;;0.80;;
29370;SDS011;16357;52.188;7.838;2023-07-29T12:29:44;0.82;;;0.77;;
29370;SDS011;16357;52.188;7.838;2023-07-29T12:32:12;0.88;;;0.80;;
29370;SDS011;16357;52.188;7.838;2023-07-29T12:34:40;1.90;;;0.90;;
29370;SDS011;16357;52.188;7.838;2023-07-29T12:37:07;1.13;;;1.00;;
29370;SDS011;16357;52.188;7.838;2023-07-29T12:39:35;1.13;;;0.90;;
29370;SDS011;16357;52.188;7.838;2023-07-29T12:42:06;1.25;;;0.80;;
29370;SDS011;16357;52.188;7.838;2023-07-29T12:44:33;1.08;;;0.98;;
29370;SDS011;16357;52.188;7.838;2023-07-29T12:47:02;1.13;;;0.85;;
29370;SDS011;16357;52.188;7.838;2023-07-29T12:49:31;4.28;;;1.00;;
29370;SDS011;16357;52.188;7.838;2023-07-29T12:52:01;1.40;;;0.80;;
29370;SDS011;16357;52.188;7.838;2023-07-29T12:54:27;1.55;;;0.88;;
29370;SDS011;16357;52.188;7.838;2023-07-29T12:56:54;1.15;;;0.82;;
29370;SDS011;16357;52.188;7.838;2023-07-29T12:59:20;2.15;;;0.90;;
29370;SDS011;16357;52.188;7.838;2023-07-29T13:01:47;1.00;;;0.90;;
29370;SDS011;16357;52.188;7.838;2023-07-29T13:04:13;1.85;;;0.82;;
29370;SDS011;16357;52.188;7.838;2023-07-29T13:06:40;1.73;;;1.02;;
29370;SDS011;16357;52.188;7.838;2023-07-29T13:09:07;1.55;;;0.90;;
29370;SDS011;16357;52.188;7.838;2023-07-29T13:11:33;0.80;;;0.80;;
29370;SDS011;16357;52.188;7.838;2023-07-29T13:14:00;1.38;;;1.15;;
29370;SDS011;16357;52.188;7.838;2023-07-29T13:16:27;1.00;;;0.80;;
29370;SDS011;16357;52.188;7.838;2023-07-29T13:18:54;1.70;;;0.73;;
29370;SDS011;16357;52.188;7.838;2023-07-29T13:21:22;0.75;;;0.63;;
29370;SDS011;16357;52.188;7.838;2023-07-29T13:23:49;1.63;;;0.90;;
29370;SDS011;16357;52.188;7.838;2023-07-29T13:26:16;1.05;;;0.90;;
29370;SDS011;16357;52.188;7.838;2023-07-29T13:28:42;1.02;;;0.90;;
29370;SDS011;16357;52.188;7.838;2023-07-29T13:31:09;2.08;;;1.10;;
29370;SDS011;16357;52.188;7.838;2023-07-29T13:33:35;2.22;;;0.93;;
29370;SDS011;16357;52.188;7.838;2023-07-29T13:36:02;0.70;;;0.70;;
29370;SDS011;16357;52.188;7.838;2023-07-29T13:38:29;1.00;;;0.90;;
29370;SDS011;16357;52.188;7.838;2023-07-29T13:40:56;1.52;;;1.02;;
29370;SDS011;16357;52.188;7.838;2023-07-29T13:43:22;1.30;;;1.10;;
29370;SDS011;16357;52.188;7.838;2023-07-29T13:45:49;1.92;;;1.02;;
29370;SDS011;16357;52.188;7.838;2023-07-29T13:48:17;1.23;;;1.08;;
29370;SDS011;16357;52.188;7.838;2023-07-29T13:50:44;1.38;;;0.90;;
29370;SDS011;16357;52.188;7.838;2023-07-29T13:53:10;1.60;;;1.13;;
29370;SDS011;16357;52.188;7.838;2023-07-29T13:55:37;0.90;;;0.90;;
29370;SDS011;16357;52.188;7.838;2023-07-29T13:58:04;1.33;;;1.05;;
29370;SDS011;16357;52.188;7.838;2023-07-29T14:00:30;1.20;;;1.00;;
29370;SDS011;16357;52.188;7.838;2023-07-29T14:02:56;1.00;;;0.90;;
29370;SDS011;16357;52.188;7.838;2023-07-29T14:05:23;1.23;;;0.90;;
29370;SDS011;16357;52.188;7.838;2023-07-29T14:07:49;1.42;;;1.02;;
29370;SDS011;16357;52.188;7.838;2023-07-29T14:10:16;0.85;;;0.70;;
29370;SDS011;16357;52.188;7.838;2023-07-29T14:12:42;3.10;;;0.80;;
29370;SDS011;16357;52.188;7.838;2023-07-29T14:15:09;1.10;;;0.98;;
29370;SDS011;16357;52.188;7.838;2023-07-29T14:17:35;2.28;;;1.05;;
29370;SDS011;16357;52.188;7.838;2023-07-29T14:20:02;1.40;;;1.10;;
29370;SDS011;16357;52.188;7.838;2023-07-29T14:22:31;1.30;;;1.15;;
29370;SDS011;16357;52.188;7.838;2023-07-29T14:24:57;1.27;;;1.05;;
29370;SDS011;16357;52.188;7.838;2023-07-29T14:27:26;1.48;;;1.10;;
29370;SDS011;16357;52.188;7.838;2023-07-29T14:29:53;2.05;;;1.20;;
29370;SDS011;16357;52.188;7.838;2023-07-29T14:32:19;1.17;;;1.02;;
29370;SDS011;16357;52.188;7.838;2023-07-29T14:34:49;1.02;;;0.85;;
29370;SDS011;16357;52.188;7.838;2023-07-29T14:37:15;1.95;;;1.27;;
29370;SDS011;16357;52.188;7.838;2023-07-29T14:39:42;1.75;;;1.20;;
29370;SDS011;16357;52.188;7.838;2023-07-29T14:42:08;2.28;;;1.30;;
29370;SDS011;16357;52.188;7.838;2023-07-29T14:44:35;2.75;;;1.20;;
29370;SDS011;16357;52.188;7.838;2023-07-29T14:47:01;1.10;;;0.98;;
29370;SDS011;16357;52.188;7.838;2023-07-29T14:49:27;1.85;;;1.10;;
29370;SDS011;16357;52.188;7.838;2023-07-29T14:51:54;4.25;;;1.55;;
29370;SDS011;16357;52.188;7.838;2023-07-29T14:54:21;1.42;;;1.13;;
29370;SDS011;16357;52.188;7.838;2023-07-29T14:56:47;2.35;;;1.30;;
29370;SDS011;16357;52.188;7.838;2023-07-29T14:59:14;1.50;;;1.40;;
29370;SDS011;16357;52.188;7.838;2023-07-29T15:01:40;1.52;;;1.20;;
29370;SDS011;16357;52.188;7.838;2023-07-29T15:04:07;1.40;;;1.20;;
29370;SDS011;16357;52.188;7.838;2023-07-29T15:06:33;1.48;;;1.23;;
29370;SDS011;16357;52.188;7.838;2023-07-29T15:09:01;1.45;;;1.27;;
29370;SDS011;16357;52.188;7.838;2023-07-29T15:11:27;1.98;;;1.15;;
29370;SDS011;16357;52.188;7.838;2023-07-29T15:13:54;2.38;;;1.33;;